Terminal Aerodrome Forecast
Issued by NWS Melbourne, FL

Home | Current Version | Previous Version | Text Only | Print | Product List | Glossary On
Versions: 1 2 3 4 5 6 7 8 9 10 11 12 13 14
000
FTUS42 KMLB 042333
TAFVRB
TAF
KVRB 042333Z 0500/0524 14006KT P6SM FEW040
     FM050200 VRB02KT P6SM SCT250
     FM051200 26003KT P6SM FEW035
     FM051600 11008KT P6SM SCT035 SCT250 PROB30 0518/0521 TS
      BKN035CB BKN070
     FM052200 13008KT P6SM FEW030 SCT250=

USA.gov is the U.S. government's official web portal to all federal, state and local government web resources and services.